sensor_id;sensor_type;location;lat;lon;timestamp;P1;durP1;ratioP1;P2;durP2;ratioP2
51686;SDS011;37774;52.192;4.584;2023-04-24T00:00:45;0.30;;;0.28;;
51686;SDS011;37774;52.192;4.584;2023-04-24T00:03:31;2.45;;;0.30;;
51686;SDS011;37774;52.192;4.584;2023-04-24T00:06:16;1.27;;;0.38;;
51686;SDS011;37774;52.192;4.584;2023-04-24T00:09:02;1.23;;;0.40;;
51686;SDS011;37774;52.192;4.584;2023-04-24T00:11:47;3.00;;;0.43;;
51686;SDS011;37774;52.192;4.584;2023-04-24T00:14:34;0.17;;;0.10;;
51686;SDS011;37774;52.192;4.584;2023-04-24T00:17:19;4.72;;;0.20;;
51686;SDS011;37774;52.192;4.584;2023-04-24T00:20:05;0.35;;;0.25;;
51686;SDS011;37774;52.192;4.584;2023-04-24T00:22:51;5.07;;;0.33;;
51686;SDS011;37774;52.192;4.584;2023-04-24T00:25:37;4.75;;;1.58;;
51686;SDS011;37774;52.192;4.584;2023-04-24T00:28:22;1.85;;;0.63;;
51686;SDS011;37774;52.192;4.584;2023-04-24T00:31:09;1.20;;;0.65;;
51686;SDS011;37774;52.192;4.584;2023-04-24T00:33:54;1.33;;;0.70;;
51686;SDS011;37774;52.192;4.584;2023-04-24T00:36:40;3.03;;;0.73;;
51686;SDS011;37774;52.192;4.584;2023-04-24T00:39:25;8.18;;;1.02;;
51686;SDS011;37774;52.192;4.584;2023-04-24T00:42:11;1.83;;;0.63;;
51686;SDS011;37774;52.192;4.584;2023-04-24T00:44:57;5.10;;;1.30;;
51686;SDS011;37774;52.192;4.584;2023-04-24T00:47:44;7.65;;;0.73;;
51686;SDS011;37774;52.192;4.584;2023-04-24T00:53:15;5.05;;;1.00;;
51686;SDS011;37774;52.192;4.584;2023-04-24T00:56:01;2.10;;;0.60;;
51686;SDS011;37774;52.192;4.584;2023-04-24T00:58:47;1.10;;;0.50;;
51686;SDS011;37774;52.192;4.584;2023-04-24T01:01:32;1.13;;;0.55;;
51686;SDS011;37774;52.192;4.584;2023-04-24T01:04:20;4.97;;;0.95;;
51686;SDS011;37774;52.192;4.584;2023-04-24T01:07:05;3.90;;;0.80;;
51686;SDS011;37774;52.192;4.584;2023-04-24T01:09:54;4.53;;;0.60;;
51686;SDS011;37774;52.192;4.584;2023-04-24T01:12:39;5.20;;;1.08;;
51686;SDS011;37774;52.192;4.584;2023-04-24T01:15:24;2.85;;;0.68;;
51686;SDS011;37774;52.192;4.584;2023-04-24T01:18:10;4.95;;;0.50;;
51686;SDS011;37774;52.192;4.584;2023-04-24T01:20:57;0.73;;;0.43;;
51686;SDS011;37774;52.192;4.584;2023-04-24T01:23:45;4.40;;;0.75;;
51686;SDS011;37774;52.192;4.584;2023-04-24T01:26:31;6.07;;;1.00;;
51686;SDS011;37774;52.192;4.584;2023-04-24T01:29:16;1.65;;;1.00;;
51686;SDS011;37774;52.192;4.584;2023-04-24T01:32:02;4.13;;;1.00;;
51686;SDS011;37774;52.192;4.584;2023-04-24T01:34:48;1.93;;;1.03;;
51686;SDS011;37774;52.192;4.584;2023-04-24T01:37:34;2.83;;;0.88;;
51686;SDS011;37774;52.192;4.584;2023-04-24T01:40:22;1.75;;;0.88;;
51686;SDS011;37774;52.192;4.584;2023-04-24T01:43:08;2.42;;;1.13;;
51686;SDS011;37774;52.192;4.584;2023-04-24T01:45:53;2.03;;;1.00;;
51686;SDS011;37774;52.192;4.584;2023-04-24T01:48:39;0.60;;;0.50;;
51686;SDS011;37774;52.192;4.584;2023-04-24T01:51:24;2.45;;;0.63;;
51686;SDS011;37774;52.192;4.584;2023-04-24T01:54:10;1.08;;;0.98;;
51686;SDS011;37774;52.192;4.584;2023-04-24T01:56:57;0.85;;;0.65;;
51686;SDS011;37774;52.192;4.584;2023-04-24T01:59:44;2.55;;;0.70;;
51686;SDS011;37774;52.192;4.584;2023-04-24T02:02:29;5.20;;;1.30;;
51686;SDS011;37774;52.192;4.584;2023-04-24T02:05:15;1.95;;;1.30;;
51686;SDS011;37774;52.192;4.584;2023-04-24T02:08:00;3.15;;;0.95;;
51686;SDS011;37774;52.192;4.584;2023-04-24T02:10:46;3.85;;;1.10;;
51686;SDS011;37774;52.192;4.584;2023-04-24T02:13:33;8.07;;;0.93;;
51686;SDS011;37774;52.192;4.584;2023-04-24T02:16:18;2.35;;;1.02;;
51686;SDS011;37774;52.192;4.584;2023-04-24T02:19:04;3.72;;;1.30;;
51686;SDS011;37774;52.192;4.584;2023-04-24T02:21:49;7.07;;;1.20;;
51686;SDS011;37774;52.192;4.584;2023-04-24T02:24:35;6.20;;;1.17;;
51686;SDS011;37774;52.192;4.584;2023-04-24T02:27:20;2.15;;;1.08;;
51686;SDS011;37774;52.192;4.584;2023-04-24T02:30:08;1.83;;;1.10;;
51686;SDS011;37774;52.192;4.584;2023-04-24T02:32:55;2.15;;;1.08;;
51686;SDS011;37774;52.192;4.584;2023-04-24T02:35:40;8.15;;;1.40;;
51686;SDS011;37774;52.192;4.584;2023-04-24T02:38:26;3.47;;;0.80;;
51686;SDS011;37774;52.192;4.584;2023-04-24T02:41:11;3.75;;;1.08;;
51686;SDS011;37774;52.192;4.584;2023-04-24T02:43:57;1.33;;;0.50;;
51686;SDS011;37774;52.192;4.584;2023-04-24T02:46:44;1.38;;;0.80;;
51686;SDS011;37774;52.192;4.584;2023-04-24T02:49:29;4.70;;;1.30;;
51686;SDS011;37774;52.192;4.584;2023-04-24T02:52:14;2.05;;;0.82;;
51686;SDS011;37774;52.192;4.584;2023-04-24T02:55:00;5.88;;;1.35;;
51686;SDS011;37774;52.192;4.584;2023-04-24T02:57:45;6.53;;;1.60;;
51686;SDS011;37774;52.192;4.584;2023-04-24T03:00:31;4.07;;;1.15;;
51686;SDS011;37774;52.192;4.584;2023-04-24T03:03:18;2.75;;;1.30;;
51686;SDS011;37774;52.192;4.584;2023-04-24T03:06:03;1.10;;;0.80;;
51686;SDS011;37774;52.192;4.584;2023-04-24T03:08:50;2.55;;;0.80;;
51686;SDS011;37774;52.192;4.584;2023-04-24T03:11:35;5.50;;;1.13;;
51686;SDS011;37774;52.192;4.584;2023-04-24T03:14:21;1.27;;;0.80;;
51686;SDS011;37774;52.192;4.584;2023-04-24T03:17:06;0.88;;;0.70;;
51686;SDS011;37774;52.192;4.584;2023-04-24T03:19:53;4.70;;;0.90;;
51686;SDS011;37774;52.192;4.584;2023-04-24T03:22:38;1.67;;;0.60;;
51686;SDS011;37774;52.192;4.584;2023-04-24T03:25:24;0.98;;;0.30;;
51686;SDS011;37774;52.192;4.584;2023-04-24T03:28:09;2.55;;;0.22;;
51686;SDS011;37774;52.192;4.584;2023-04-24T03:30:55;2.05;;;0.30;;
51686;SDS011;37774;52.192;4.584;2023-04-24T03:33:40;2.65;;;0.22;;
51686;SDS011;37774;52.192;4.584;2023-04-24T03:36:27;3.30;;;0.45;;
51686;SDS011;37774;52.192;4.584;2023-04-24T03:39:12;0.15;;;0.15;;
51686;SDS011;37774;52.192;4.584;2023-04-24T03:41:58;1.00;;;0.60;;
51686;SDS011;37774;52.192;4.584;2023-04-24T03:44:43;0.35;;;0.30;;
51686;SDS011;37774;52.192;4.584;2023-04-24T03:47:29;2.90;;;0.22;;
51686;SDS011;37774;52.192;4.584;2023-04-24T03:50:15;4.10;;;0.70;;
51686;SDS011;37774;52.192;4.584;2023-04-24T03:53:02;1.35;;;0.60;;
51686;SDS011;37774;52.192;4.584;2023-04-24T03:55:47;2.47;;;0.32;;
51686;SDS011;37774;52.192;4.584;2023-04-24T03:58:32;0.75;;;0.43;;
51686;SDS011;37774;52.192;4.584;2023-04-24T04:01:18;0.77;;;0.22;;
51686;SDS011;37774;52.192;4.584;2023-04-24T04:04:04;2.35;;;0.43;;
51686;SDS011;37774;52.192;4.584;2023-04-24T04:06:49;0.85;;;0.30;;
51686;SDS011;37774;52.192;4.584;2023-04-24T04:09:37;0.38;;;0.32;;
51686;SDS011;37774;52.192;4.584;2023-04-24T04:12:22;0.28;;;0.22;;
51686;SDS011;37774;52.192;4.584;2023-04-24T04:15:08;1.77;;;0.30;;
51686;SDS011;37774;52.192;4.584;2023-04-24T04:17:54;0.10;;;0.10;;
51686;SDS011;37774;52.192;4.584;2023-04-24T04:20:39;0.60;;;0.30;;
51686;SDS011;37774;52.192;4.584;2023-04-24T04:23:25;0.60;;;0.32;;
51686;SDS011;37774;52.192;4.584;2023-04-24T04:26:13;1.08;;;0.20;;
51686;SDS011;37774;52.192;4.584;2023-04-24T04:28:58;1.00;;;0.40;;
51686;SDS011;37774;52.192;4.584;2023-04-24T04:31:44;0.70;;;0.32;;
51686;SDS011;37774;52.192;4.584;2023-04-24T04:34:30;0.47;;;0.20;;
51686;SDS011;37774;52.192;4.584;2023-04-24T04:37:15;0.50;;;0.30;;
51686;SDS011;37774;52.192;4.584;2023-04-24T04:40:01;1.58;;;0.50;;
51686;SDS011;37774;52.192;4.584;2023-04-24T04:42:51;5.53;;;1.35;;
51686;SDS011;37774;52.192;4.584;2023-04-24T04:45:38;7.30;;;1.88;;
51686;SDS011;37774;52.192;4.584;2023-04-24T04:48:24;4.78;;;1.48;;
51686;SDS011;37774;52.192;4.584;2023-04-24T04:51:09;4.18;;;2.22;;
51686;SDS011;37774;52.192;4.584;2023-04-24T04:53:55;5.38;;;2.75;;
51686;SDS011;37774;52.192;4.584;2023-04-24T04:56:40;8.55;;;3.22;;
51686;SDS011;37774;52.192;4.584;2023-04-24T04:59:27;6.47;;;3.17;;
51686;SDS011;37774;52.192;4.584;2023-04-24T05:02:12;10.43;;;3.53;;
51686;SDS011;37774;52.192;4.584;2023-04-24T05:04:58;7.25;;;2.70;;
51686;SDS011;37774;52.192;4.584;2023-04-24T05:07:43;12.23;;;2.58;;
51686;SDS011;37774;52.192;4.584;2023-04-24T05:10:29;7.70;;;3.13;;
51686;SDS011;37774;52.192;4.584;2023-04-24T05:13:14;8.10;;;3.60;;
51686;SDS011;37774;52.192;4.584;2023-04-24T05:16:01;11.40;;;4.18;;
51686;SDS011;37774;52.192;4.584;2023-04-24T05:18:46;10.50;;;5.22;;
51686;SDS011;37774;52.192;4.584;2023-04-24T05:21:32;15.45;;;6.82;;
51686;SDS011;37774;52.192;4.584;2023-04-24T05:24:17;22.95;;;8.80;;
51686;SDS011;37774;52.192;4.584;2023-04-24T05:27:03;30.20;;;8.85;;
51686;SDS011;37774;52.192;4.584;2023-04-24T05:29:49;19.45;;;7.47;;
51686;SDS011;37774;52.192;4.584;2023-04-24T05:32:36;27.98;;;7.68;;
51686;SDS011;37774;52.192;4.584;2023-04-24T05:35:21;27.80;;;8.90;;
51686;SDS011;37774;52.192;4.584;2023-04-24T05:38:07;35.65;;;7.88;;
51686;SDS011;37774;52.192;4.584;2023-04-24T05:40:52;33.25;;;7.63;;
51686;SDS011;37774;52.192;4.584;2023-04-24T05:43:38;24.65;;;6.63;;
51686;SDS011;37774;52.192;4.584;2023-04-24T05:46:23;19.42;;;6.00;;
51686;SDS011;37774;52.192;4.584;2023-04-24T05:49:10;27.50;;;5.57;;
51686;SDS011;37774;52.192;4.584;2023-04-24T05:51:56;26.33;;;6.55;;
51686;SDS011;37774;52.192;4.584;2023-04-24T05:54:42;23.13;;;6.63;;
51686;SDS011;37774;52.192;4.584;2023-04-24T05:57:27;33.78;;;7.28;;
51686;SDS011;37774;52.192;4.584;2023-04-24T06:00:13;23.73;;;6.22;;
51686;SDS011;37774;52.192;4.584;2023-04-24T06:02:59;26.40;;;7.70;;
51686;SDS011;37774;52.192;4.584;2023-04-24T06:05:49;15.93;;;6.13;;
51686;SDS011;37774;52.192;4.584;2023-04-24T06:08:34;20.27;;;7.22;;
51686;SDS011;37774;52.192;4.584;2023-04-24T06:11:21;16.70;;;5.07;;
51686;SDS011;37774;52.192;4.584;2023-04-24T06:14:06;31.08;;;5.20;;
51686;SDS011;37774;52.192;4.584;2023-04-24T06:16:52;33.70;;;5.70;;
51686;SDS011;37774;52.192;4.584;2023-04-24T06:19:37;15.27;;;3.30;;
51686;SDS011;37774;52.192;4.584;2023-04-24T06:22:24;10.63;;;3.58;;
51686;SDS011;37774;52.192;4.584;2023-04-24T06:25:09;16.35;;;4.93;;
51686;SDS011;37774;52.192;4.584;2023-04-24T06:27:55;10.88;;;3.55;;
51686;SDS011;37774;52.192;4.584;2023-04-24T06:30:40;23.17;;;5.38;;
51686;SDS011;37774;52.192;4.584;2023-04-24T06:33:27;22.47;;;3.50;;
51686;SDS011;37774;52.192;4.584;2023-04-24T06:36:12;24.83;;;4.03;;
51686;SDS011;37774;52.192;4.584;2023-04-24T06:38:59;24.98;;;4.60;;
51686;SDS011;37774;52.192;4.584;2023-04-24T06:41:44;21.38;;;3.78;;
51686;SDS011;37774;52.192;4.584;2023-04-24T06:44:30;24.58;;;4.25;;
51686;SDS011;37774;52.192;4.584;2023-04-24T06:47:15;20.35;;;4.15;;
51686;SDS011;37774;52.192;4.584;2023-04-24T06:50:01;21.65;;;3.90;;
51686;SDS011;37774;52.192;4.584;2023-04-24T06:52:46;18.15;;;3.53;;
51686;SDS011;37774;52.192;4.584;2023-04-24T06:55:33;30.75;;;4.75;;
51686;SDS011;37774;52.192;4.584;2023-04-24T06:58:20;6.38;;;2.90;;
51686;SDS011;37774;52.192;4.584;2023-04-24T07:01:06;21.95;;;3.78;;
51686;SDS011;37774;52.192;4.584;2023-04-24T07:03:51;31.55;;;4.18;;
51686;SDS011;37774;52.192;4.584;2023-04-24T07:06:37;27.05;;;3.17;;
51686;SDS011;37774;52.192;4.584;2023-04-24T07:09:23;12.88;;;2.92;;
51686;SDS011;37774;52.192;4.584;2023-04-24T07:12:10;15.80;;;2.70;;
51686;SDS011;37774;52.192;4.584;2023-04-24T07:14:57;18.13;;;2.53;;
51686;SDS011;37774;52.192;4.584;2023-04-24T07:17:42;15.40;;;2.95;;
51686;SDS011;37774;52.192;4.584;2023-04-24T07:20:28;16.77;;;2.80;;
51686;SDS011;37774;52.192;4.584;2023-04-24T07:23:13;21.40;;;3.20;;
51686;SDS011;37774;52.192;4.584;2023-04-24T07:25:59;15.27;;;3.03;;
51686;SDS011;37774;52.192;4.584;2023-04-24T07:28:45;32.67;;;2.53;;
51686;SDS011;37774;52.192;4.584;2023-04-24T07:31:31;19.75;;;1.90;;
51686;SDS011;37774;52.192;4.584;2023-04-24T07:34:16;9.80;;;2.55;;
51686;SDS011;37774;52.192;4.584;2023-04-24T07:37:02;8.15;;;2.33;;
51686;SDS011;37774;52.192;4.584;2023-04-24T07:39:47;19.17;;;1.95;;
51686;SDS011;37774;52.192;4.584;2023-04-24T07:42:33;5.10;;;1.85;;
51686;SDS011;37774;52.192;4.584;2023-04-24T07:45:21;14.50;;;2.47;;
51686;SDS011;37774;52.192;4.584;2023-04-24T07:50:54;24.40;;;2.60;;
51686;SDS011;37774;52.192;4.584;2023-04-24T07:53:39;12.55;;;3.25;;
51686;SDS011;37774;52.192;4.584;2023-04-24T07:56:25;20.17;;;2.67;;
51686;SDS011;37774;52.192;4.584;2023-04-24T07:59:10;15.38;;;2.08;;
51686;SDS011;37774;52.192;4.584;2023-04-24T08:01:57;25.55;;;2.05;;
51686;SDS011;37774;52.192;4.584;2023-04-24T08:04:43;13.55;;;2.20;;
51686;SDS011;37774;52.192;4.584;2023-04-24T08:07:28;10.60;;;2.60;;
51686;SDS011;37774;52.192;4.584;2023-04-24T08:10:14;16.55;;;2.15;;
51686;SDS011;37774;52.192;4.584;2023-04-24T08:12:59;9.13;;;1.83;;
51686;SDS011;37774;52.192;4.584;2023-04-24T08:15:44;14.77;;;1.63;;
51686;SDS011;37774;52.192;4.584;2023-04-24T08:18:31;9.82;;;1.95;;
51686;SDS011;37774;52.192;4.584;2023-04-24T08:21:18;10.55;;;1.63;;
51686;SDS011;37774;52.192;4.584;2023-04-24T08:24:04;11.05;;;2.05;;
51686;SDS011;37774;52.192;4.584;2023-04-24T08:26:52;11.20;;;1.90;;
51686;SDS011;37774;52.192;4.584;2023-04-24T08:29:37;10.27;;;1.50;;
51686;SDS011;37774;52.192;4.584;2023-04-24T08:32:23;15.43;;;1.92;;
51686;SDS011;37774;52.192;4.584;2023-04-24T08:35:10;8.88;;;1.80;;
51686;SDS011;37774;52.192;4.584;2023-04-24T08:37:56;13.70;;;1.85;;
51686;SDS011;37774;52.192;4.584;2023-04-24T08:40:41;7.53;;;1.60;;
51686;SDS011;37774;52.192;4.584;2023-04-24T08:43:29;10.00;;;2.15;;
51686;SDS011;37774;52.192;4.584;2023-04-24T08:46:16;3.72;;;1.35;;
51686;SDS011;37774;52.192;4.584;2023-04-24T08:49:03;6.40;;;1.35;;
51686;SDS011;37774;52.192;4.584;2023-04-24T08:51:51;7.20;;;1.63;;
51686;SDS011;37774;52.192;4.584;2023-04-24T08:54:37;10.60;;;2.33;;
51686;SDS011;37774;52.192;4.584;2023-04-24T08:57:23;5.60;;;1.27;;
51686;SDS011;37774;52.192;4.584;2023-04-24T09:00:11;20.08;;;1.45;;
51686;SDS011;37774;52.192;4.584;2023-04-24T09:02:57;2.03;;;0.93;;
51686;SDS011;37774;52.192;4.584;2023-04-24T09:05:42;3.28;;;1.17;;
51686;SDS011;37774;52.192;4.584;2023-04-24T09:08:32;17.10;;;2.40;;
51686;SDS011;37774;52.192;4.584;2023-04-24T09:11:18;12.75;;;1.95;;
51686;SDS011;37774;52.192;4.584;2023-04-24T09:14:04;10.35;;;1.90;;
51686;SDS011;37774;52.192;4.584;2023-04-24T09:16:50;13.88;;;1.15;;
51686;SDS011;37774;52.192;4.584;2023-04-24T09:19:36;6.68;;;1.00;;
51686;SDS011;37774;52.192;4.584;2023-04-24T09:22:21;16.35;;;1.95;;
51686;SDS011;37774;52.192;4.584;2023-04-24T09:25:08;9.13;;;1.13;;
51686;SDS011;37774;52.192;4.584;2023-04-24T09:27:59;3.95;;;1.00;;
51686;SDS011;37774;52.192;4.584;2023-04-24T09:30:46;1.58;;;0.40;;
51686;SDS011;37774;52.192;4.584;2023-04-24T09:33:53;4.30;;;1.23;;
51686;SDS011;37774;52.192;4.584;2023-04-24T09:36:40;2.80;;;1.30;;
51686;SDS011;37774;52.192;4.584;2023-04-24T09:39:27;8.73;;;1.33;;
51686;SDS011;37774;52.192;4.584;2023-04-24T09:42:13;10.40;;;0.95;;
51686;SDS011;37774;52.192;4.584;2023-04-24T09:44:59;5.93;;;0.73;;
51686;SDS011;37774;52.192;4.584;2023-04-24T09:47:44;11.80;;;0.90;;
51686;SDS011;37774;52.192;4.584;2023-04-24T09:50:30;5.95;;;1.52;;
51686;SDS011;37774;52.192;4.584;2023-04-24T09:53:18;3.58;;;0.43;;
51686;SDS011;37774;52.192;4.584;2023-04-24T09:56:09;8.38;;;0.77;;
51686;SDS011;37774;52.192;4.584;2023-04-24T09:58:59;10.63;;;0.73;;
51686;SDS011;37774;52.192;4.584;2023-04-24T10:01:49;2.20;;;0.63;;
51686;SDS011;37774;52.192;4.584;2023-04-24T10:04:36;2.33;;;0.52;;
51686;SDS011;37774;52.192;4.584;2023-04-24T10:07:21;1.77;;;0.20;;
51686;SDS011;37774;52.192;4.584;2023-04-24T10:10:07;10.07;;;0.80;;
51686;SDS011;37774;52.192;4.584;2023-04-24T10:12:54;3.67;;;0.85;;
51686;SDS011;37774;52.192;4.584;2023-04-24T10:15:42;2.03;;;0.50;;
51686;SDS011;37774;52.192;4.584;2023-04-24T10:21:14;4.65;;;0.63;;
51686;SDS011;37774;52.192;4.584;2023-04-24T10:23:59;1.80;;;0.40;;
51686;SDS011;37774;52.192;4.584;2023-04-24T10:26:47;6.13;;;0.57;;
51686;SDS011;37774;52.192;4.584;2023-04-24T10:29:33;3.13;;;1.02;;
51686;SDS011;37774;52.192;4.584;2023-04-24T10:32:22;6.15;;;0.50;;
51686;SDS011;37774;52.192;4.584;2023-04-24T10:35:08;3.50;;;0.73;;
51686;SDS011;37774;52.192;4.584;2023-04-24T10:37:56;14.95;;;1.48;;
51686;SDS011;37774;52.192;4.584;2023-04-24T10:40:44;2.60;;;0.50;;
51686;SDS011;37774;52.192;4.584;2023-04-24T10:43:31;2.58;;;0.43;;
51686;SDS011;37774;52.192;4.584;2023-04-24T10:46:20;3.63;;;0.47;;
51686;SDS011;37774;52.192;4.584;2023-04-24T10:49:07;8.75;;;0.63;;
51686;SDS011;37774;52.192;4.584;2023-04-24T10:54:41;3.45;;;0.50;;
51686;SDS011;37774;52.192;4.584;2023-04-24T10:57:28;11.95;;;0.90;;
51686;SDS011;37774;52.192;4.584;2023-04-24T11:03:04;6.82;;;1.00;;
51686;SDS011;37774;52.192;4.584;2023-04-24T11:05:56;11.20;;;0.70;;
51686;SDS011;37774;52.192;4.584;2023-04-24T11:08:43;4.63;;;0.60;;
51686;SDS011;37774;52.192;4.584;2023-04-24T11:11:30;3.78;;;0.57;;
51686;SDS011;37774;52.192;4.584;2023-04-24T11:14:16;7.53;;;0.88;;
51686;SDS011;37774;52.192;4.584;2023-04-24T11:17:01;8.98;;;0.95;;
51686;SDS011;37774;52.192;4.584;2023-04-24T11:19:49;5.75;;;1.10;;
51686;SDS011;37774;52.192;4.584;2023-04-24T11:22:37;5.38;;;0.90;;
51686;SDS011;37774;52.192;4.584;2023-04-24T11:25:24;11.25;;;1.63;;
51686;SDS011;37774;52.192;4.584;2023-04-24T11:28:10;6.05;;;1.00;;
51686;SDS011;37774;52.192;4.584;2023-04-24T11:31:05;8.05;;;1.35;;
51686;SDS011;37774;52.192;4.584;2023-04-24T11:34:20;10.40;;;1.83;;
51686;SDS011;37774;52.192;4.584;2023-04-24T11:37:05;7.47;;;1.00;;
51686;SDS011;37774;52.192;4.584;2023-04-24T11:39:54;6.68;;;1.00;;
51686;SDS011;37774;52.192;4.584;2023-04-24T11:42:40;18.75;;;1.23;;
51686;SDS011;37774;52.192;4.584;2023-04-24T11:45:27;6.55;;;1.08;;
51686;SDS011;37774;52.192;4.584;2023-04-24T11:48:18;9.32;;;1.25;;
51686;SDS011;37774;52.192;4.584;2023-04-24T11:51:03;19.73;;;1.83;;
51686;SDS011;37774;52.192;4.584;2023-04-24T11:53:49;11.95;;;1.55;;
51686;SDS011;37774;52.192;4.584;2023-04-24T11:56:36;14.05;;;1.25;;
51686;SDS011;37774;52.192;4.584;2023-04-24T11:59:23;8.45;;;1.35;;
51686;SDS011;37774;52.192;4.584;2023-04-24T12:02:08;13.23;;;2.40;;
51686;SDS011;37774;52.192;4.584;2023-04-24T12:05:04;2.33;;;1.00;;
51686;SDS011;37774;52.192;4.584;2023-04-24T12:07:50;12.60;;;1.42;;
51686;SDS011;37774;52.192;4.584;2023-04-24T12:10:35;16.90;;;2.17;;
51686;SDS011;37774;52.192;4.584;2023-04-24T12:13:26;22.55;;;2.35;;
51686;SDS011;37774;52.192;4.584;2023-04-24T12:16:12;14.02;;;1.63;;
51686;SDS011;37774;52.192;4.584;2023-04-24T12:18:57;14.15;;;2.15;;
51686;SDS011;37774;52.192;4.584;2023-04-24T12:21:44;28.35;;;2.78;;
51686;SDS011;37774;52.192;4.584;2023-04-24T12:25:00;5.78;;;2.17;;
51686;SDS011;37774;52.192;4.584;2023-04-24T12:27:50;10.88;;;1.58;;
51686;SDS011;37774;52.192;4.584;2023-04-24T12:30:40;17.63;;;2.55;;
51686;SDS011;37774;52.192;4.584;2023-04-24T12:33:31;8.68;;;2.25;;
51686;SDS011;37774;52.192;4.584;2023-04-24T12:36:18;13.05;;;1.75;;
51686;SDS011;37774;52.192;4.584;2023-04-24T12:39:13;7.63;;;1.88;;
51686;SDS011;37774;52.192;4.584;2023-04-24T12:42:00;13.13;;;2.20;;
51686;SDS011;37774;52.192;4.584;2023-04-24T12:44:46;7.63;;;1.97;;
51686;SDS011;37774;52.192;4.584;2023-04-24T12:47:34;9.77;;;2.33;;
51686;SDS011;37774;52.192;4.584;2023-04-24T12:50:21;15.73;;;2.55;;
51686;SDS011;37774;52.192;4.584;2023-04-24T12:53:06;18.05;;;2.20;;
51686;SDS011;37774;52.192;4.584;2023-04-24T12:55:52;14.50;;;2.53;;
51686;SDS011;37774;52.192;4.584;2023-04-24T12:58:41;11.02;;;2.10;;
51686;SDS011;37774;52.192;4.584;2023-04-24T13:01:26;10.63;;;2.65;;
51686;SDS011;37774;52.192;4.584;2023-04-24T13:04:13;8.13;;;1.55;;
51686;SDS011;37774;52.192;4.584;2023-04-24T13:07:00;9.77;;;1.90;;
51686;SDS011;37774;52.192;4.584;2023-04-24T13:09:47;7.68;;;1.85;;
51686;SDS011;37774;52.192;4.584;2023-04-24T13:12:34;15.60;;;2.78;;
51686;SDS011;37774;52.192;4.584;2023-04-24T13:15:20;21.17;;;3.15;;
51686;SDS011;37774;52.192;4.584;2023-04-24T13:18:05;8.82;;;2.35;;
51686;SDS011;37774;52.192;4.584;2023-04-24T13:20:52;9.05;;;2.13;;
51686;SDS011;37774;52.192;4.584;2023-04-24T13:27:01;14.98;;;1.92;;
51686;SDS011;37774;52.192;4.584;2023-04-24T13:29:50;9.40;;;2.28;;
51686;SDS011;37774;52.192;4.584;2023-04-24T13:32:36;16.85;;;2.53;;
51686;SDS011;37774;52.192;4.584;2023-04-24T13:35:25;11.65;;;2.53;;
51686;SDS011;37774;52.192;4.584;2023-04-24T13:38:15;19.67;;;3.22;;
51686;SDS011;37774;52.192;4.584;2023-04-24T13:41:13;12.30;;;2.63;;
51686;SDS011;37774;52.192;4.584;2023-04-24T13:44:16;18.65;;;2.35;;
51686;SDS011;37774;52.192;4.584;2023-04-24T13:47:06;15.07;;;3.10;;
51686;SDS011;37774;52.192;4.584;2023-04-24T13:49:54;14.32;;;2.95;;
51686;SDS011;37774;52.192;4.584;2023-04-24T13:53:00;10.27;;;2.20;;
51686;SDS011;37774;52.192;4.584;2023-04-24T13:55:50;16.10;;;2.55;;
51686;SDS011;37774;52.192;4.584;2023-04-24T13:58:49;12.50;;;2.78;;
51686;SDS011;37774;52.192;4.584;2023-04-24T14:01:35;10.70;;;1.95;;
51686;SDS011;37774;52.192;4.584;2023-04-24T14:04:29;13.02;;;2.13;;
51686;SDS011;37774;52.192;4.584;2023-04-24T14:07:24;6.75;;;2.38;;
51686;SDS011;37774;52.192;4.584;2023-04-24T14:10:18;15.65;;;2.42;;
51686;SDS011;37774;52.192;4.584;2023-04-24T14:13:06;17.65;;;2.63;;
51686;SDS011;37774;52.192;4.584;2023-04-24T14:15:51;9.65;;;2.13;;
51686;SDS011;37774;52.192;4.584;2023-04-24T14:18:37;8.80;;;2.60;;
51686;SDS011;37774;52.192;4.584;2023-04-24T14:21:23;8.85;;;2.05;;
51686;SDS011;37774;52.192;4.584;2023-04-24T14:24:08;10.05;;;2.40;;
51686;SDS011;37774;52.192;4.584;2023-04-24T14:26:57;14.93;;;2.45;;
51686;SDS011;37774;52.192;4.584;2023-04-24T14:29:44;11.00;;;2.13;;
51686;SDS011;37774;52.192;4.584;2023-04-24T14:35:15;20.98;;;2.42;;
51686;SDS011;37774;52.192;4.584;2023-04-24T14:38:03;13.75;;;4.32;;
51686;SDS011;37774;52.192;4.584;2023-04-24T14:40:49;19.42;;;2.60;;
51686;SDS011;37774;52.192;4.584;2023-04-24T14:43:35;6.45;;;2.35;;
51686;SDS011;37774;52.192;4.584;2023-04-24T14:46:25;15.32;;;2.80;;
51686;SDS011;37774;52.192;4.584;2023-04-24T14:49:11;8.98;;;2.20;;
51686;SDS011;37774;52.192;4.584;2023-04-24T14:51:56;17.27;;;2.33;;
51686;SDS011;37774;52.192;4.584;2023-04-24T14:54:46;11.07;;;2.03;;
51686;SDS011;37774;52.192;4.584;2023-04-24T14:57:31;15.90;;;2.67;;
51686;SDS011;37774;52.192;4.584;2023-04-24T15:00:17;9.45;;;2.13;;
51686;SDS011;37774;52.192;4.584;2023-04-24T15:03:05;13.48;;;2.10;;
51686;SDS011;37774;52.192;4.584;2023-04-24T15:05:51;6.25;;;2.75;;
51686;SDS011;37774;52.192;4.584;2023-04-24T15:08:36;11.20;;;2.22;;
51686;SDS011;37774;52.192;4.584;2023-04-24T15:11:21;11.25;;;1.80;;
51686;SDS011;37774;52.192;4.584;2023-04-24T15:14:07;9.32;;;2.47;;
51686;SDS011;37774;52.192;4.584;2023-04-24T15:16:52;12.60;;;1.98;;
51686;SDS011;37774;52.192;4.584;2023-04-24T15:19:39;11.50;;;2.55;;
51686;SDS011;37774;52.192;4.584;2023-04-24T15:22:24;25.08;;;2.17;;
51686;SDS011;37774;52.192;4.584;2023-04-24T15:25:10;14.02;;;2.85;;
51686;SDS011;37774;52.192;4.584;2023-04-24T15:27:55;8.15;;;2.45;;
51686;SDS011;37774;52.192;4.584;2023-04-24T15:30:41;10.85;;;2.50;;
51686;SDS011;37774;52.192;4.584;2023-04-24T15:33:26;20.45;;;2.53;;
51686;SDS011;37774;52.192;4.584;2023-04-24T15:36:13;22.33;;;3.90;;
51686;SDS011;37774;52.192;4.584;2023-04-24T15:41:45;13.25;;;2.45;;
51686;SDS011;37774;52.192;4.584;2023-04-24T15:44:31;22.20;;;2.75;;
51686;SDS011;37774;52.192;4.584;2023-04-24T15:47:18;12.73;;;2.42;;
51686;SDS011;37774;52.192;4.584;2023-04-24T15:50:04;14.98;;;2.10;;
51686;SDS011;37774;52.192;4.584;2023-04-24T15:52:53;11.77;;;2.63;;
51686;SDS011;37774;52.192;4.584;2023-04-24T15:55:39;11.18;;;2.50;;
51686;SDS011;37774;52.192;4.584;2023-04-24T15:58:25;7.45;;;2.40;;
51686;SDS011;37774;52.192;4.584;2023-04-24T16:01:10;7.20;;;2.15;;
51686;SDS011;37774;52.192;4.584;2023-04-24T16:03:56;13.30;;;2.40;;
51686;SDS011;37774;52.192;4.584;2023-04-24T16:06:41;8.20;;;2.53;;
51686;SDS011;37774;52.192;4.584;2023-04-24T16:09:28;14.07;;;2.45;;
51686;SDS011;37774;52.192;4.584;2023-04-24T16:12:13;10.25;;;2.70;;
51686;SDS011;37774;52.192;4.584;2023-04-24T16:14:59;12.95;;;2.58;;
51686;SDS011;37774;52.192;4.584;2023-04-24T16:17:45;15.88;;;2.50;;
51686;SDS011;37774;52.192;4.584;2023-04-24T16:20:31;14.13;;;2.60;;
51686;SDS011;37774;52.192;4.584;2023-04-24T16:23:16;22.58;;;3.60;;
51686;SDS011;37774;52.192;4.584;2023-04-24T16:26:03;13.93;;;2.72;;
51686;SDS011;37774;52.192;4.584;2023-04-24T16:28:49;5.75;;;2.53;;
51686;SDS011;37774;52.192;4.584;2023-04-24T16:31:34;10.43;;;2.03;;
51686;SDS011;37774;52.192;4.584;2023-04-24T16:34:19;16.10;;;2.83;;
51686;SDS011;37774;52.192;4.584;2023-04-24T16:37:05;10.43;;;2.65;;
51686;SDS011;37774;52.192;4.584;2023-04-24T16:39:51;13.40;;;2.60;;
51686;SDS011;37774;52.192;4.584;2023-04-24T16:42:39;24.50;;;3.30;;
51686;SDS011;37774;52.192;4.584;2023-04-24T16:45:24;14.13;;;2.63;;
51686;SDS011;37774;52.192;4.584;2023-04-24T16:48:10;35.63;;;3.42;;
51686;SDS011;37774;52.192;4.584;2023-04-24T16:50:55;15.77;;;2.53;;
51686;SDS011;37774;52.192;4.584;2023-04-24T16:53:41;8.73;;;2.20;;
51686;SDS011;37774;52.192;4.584;2023-04-24T16:56:26;20.65;;;2.00;;
51686;SDS011;37774;52.192;4.584;2023-04-24T16:59:13;14.90;;;2.40;;